sensor_id;sensor_type;location;lat;lon;timestamp;P1;durP1;ratioP1;P2;durP2;ratioP2
61704;SDS011;47627;48.078;11.522;2023-05-24T06:35:48;10.52;;;6.60;;
61704;SDS011;47627;48.078;11.522;2023-05-24T06:38:13;6.20;;;5.60;;
61704;SDS011;47627;48.078;11.522;2023-05-24T06:40:38;9.07;;;5.85;;
61704;SDS011;47627;48.078;11.522;2023-05-24T06:43:04;8.82;;;6.00;;
61704;SDS011;47627;48.078;11.522;2023-05-24T06:45:30;11.57;;;5.72;;
61704;SDS011;47627;48.078;11.522;2023-05-24T06:47:57;7.68;;;6.35;;
61704;SDS011;47627;48.078;11.522;2023-05-24T06:50:22;9.13;;;6.27;;
61704;SDS011;47627;48.078;11.522;2023-05-24T06:52:47;8.35;;;6.00;;
61704;SDS011;47627;48.078;11.522;2023-05-24T06:55:13;7.18;;;5.70;;
61704;SDS011;47627;48.078;11.522;2023-05-24T06:57:38;7.72;;;5.72;;
61704;SDS011;47627;48.078;11.522;2023-05-24T07:00:04;5.60;;;5.10;;
61704;SDS011;47627;48.078;11.522;2023-05-24T07:02:33;6.85;;;5.93;;
61704;SDS011;47627;48.078;11.522;2023-05-24T07:04:59;6.53;;;5.75;;
61704;SDS011;47627;48.078;11.522;2023-05-24T07:07:24;6.68;;;5.30;;
61704;SDS011;47627;48.078;11.522;2023-05-24T07:09:49;9.32;;;6.07;;
61704;SDS011;47627;48.078;11.522;2023-05-24T07:12:15;6.22;;;5.55;;
61704;SDS011;47627;48.078;11.522;2023-05-24T07:14:40;8.65;;;6.65;;
61704;SDS011;47627;48.078;11.522;2023-05-24T07:17:05;8.13;;;6.45;;
61704;SDS011;47627;48.078;11.522;2023-05-24T07:19:30;6.88;;;6.18;;
61704;SDS011;47627;48.078;11.522;2023-05-24T07:21:57;7.55;;;6.10;;
61704;SDS011;47627;48.078;11.522;2023-05-24T07:24:22;10.70;;;6.30;;
61704;SDS011;47627;48.078;11.522;2023-05-24T07:26:48;8.65;;;6.97;;
61704;SDS011;47627;48.078;11.522;2023-05-24T07:29:14;9.55;;;5.93;;
61704;SDS011;47627;48.078;11.522;2023-05-24T07:31:39;6.30;;;5.70;;
61704;SDS011;47627;48.078;11.522;2023-05-24T07:34:04;7.97;;;5.85;;
61704;SDS011;47627;48.078;11.522;2023-05-24T07:36:29;12.13;;;6.68;;
61704;SDS011;47627;48.078;11.522;2023-05-24T07:38:57;7.38;;;6.63;;
61704;SDS011;47627;48.078;11.522;2023-05-24T07:41:24;11.83;;;7.47;;
61704;SDS011;47627;48.078;11.522;2023-05-24T07:43:50;7.63;;;6.22;;
61704;SDS011;47627;48.078;11.522;2023-05-24T07:46:15;10.43;;;6.72;;
61704;SDS011;47627;48.078;11.522;2023-05-24T07:48:40;8.48;;;6.60;;
61704;SDS011;47627;48.078;11.522;2023-05-24T07:51:06;7.87;;;7.03;;
61704;SDS011;47627;48.078;11.522;2023-05-24T07:53:31;7.50;;;6.55;;
61704;SDS011;47627;48.078;11.522;2023-05-24T07:55:58;9.18;;;6.90;;
61704;SDS011;47627;48.078;11.522;2023-05-24T07:58:23;11.02;;;8.05;;
61704;SDS011;47627;48.078;11.522;2023-05-24T08:00:48;11.13;;;7.13;;
61704;SDS011;47627;48.078;11.522;2023-05-24T08:03:14;8.45;;;6.82;;
61704;SDS011;47627;48.078;11.522;2023-05-24T08:05:39;8.05;;;6.72;;
61704;SDS011;47627;48.078;11.522;2023-05-24T08:08:04;7.13;;;6.43;;
61704;SDS011;47627;48.078;11.522;2023-05-24T08:10:30;7.78;;;6.05;;
61704;SDS011;47627;48.078;11.522;2023-05-24T08:12:56;7.72;;;6.20;;
61704;SDS011;47627;48.078;11.522;2023-05-24T08:15:21;8.57;;;7.53;;
61704;SDS011;47627;48.078;11.522;2023-05-24T08:17:47;7.57;;;6.78;;
61704;SDS011;47627;48.078;11.522;2023-05-24T08:20:12;9.10;;;7.32;;
61704;SDS011;47627;48.078;11.522;2023-05-24T08:22:39;8.45;;;7.00;;
61704;SDS011;47627;48.078;11.522;2023-05-24T08:25:05;11.18;;;6.80;;
61704;SDS011;47627;48.078;11.522;2023-05-24T08:27:30;10.40;;;7.43;;
61704;SDS011;47627;48.078;11.522;2023-05-24T08:29:57;9.02;;;6.68;;
61704;SDS011;47627;48.078;11.522;2023-05-24T08:32:22;9.07;;;6.50;;
61704;SDS011;47627;48.078;11.522;2023-05-24T08:34:47;9.32;;;7.28;;
61704;SDS011;47627;48.078;11.522;2023-05-24T08:37:13;6.93;;;6.20;;
61704;SDS011;47627;48.078;11.522;2023-05-24T08:39:39;9.60;;;7.38;;
61704;SDS011;47627;48.078;11.522;2023-05-24T08:42:04;8.30;;;6.53;;
61704;SDS011;47627;48.078;11.522;2023-05-24T08:44:30;8.77;;;7.40;;
61704;SDS011;47627;48.078;11.522;2023-05-24T08:46:56;7.90;;;7.10;;
61704;SDS011;47627;48.078;11.522;2023-05-24T08:49:22;10.60;;;8.75;;
61704;SDS011;47627;48.078;11.522;2023-05-24T08:51:48;11.15;;;9.23;;
61704;SDS011;47627;48.078;11.522;2023-05-24T08:54:13;14.40;;;11.38;;
61704;SDS011;47627;48.078;11.522;2023-05-24T08:56:39;13.23;;;11.90;;
61704;SDS011;47627;48.078;11.522;2023-05-24T08:59:05;14.40;;;12.07;;
61704;SDS011;47627;48.078;11.522;2023-05-24T09:01:31;13.88;;;12.15;;
61704;SDS011;47627;48.078;11.522;2023-05-24T09:03:56;14.98;;;12.52;;
61704;SDS011;47627;48.078;11.522;2023-05-24T09:06:23;14.73;;;12.32;;
61704;SDS011;47627;48.078;11.522;2023-05-24T09:08:49;14.85;;;12.70;;
61704;SDS011;47627;48.078;11.522;2023-05-24T09:11:17;13.43;;;12.02;;
61704;SDS011;47627;48.078;11.522;2023-05-24T09:13:43;12.60;;;11.23;;
61704;SDS011;47627;48.078;11.522;2023-05-24T09:16:27;13.02;;;10.90;;
61704;SDS011;47627;48.078;11.522;2023-05-24T09:18:52;11.52;;;10.32;;
61704;SDS011;47627;48.078;11.522;2023-05-24T09:21:18;13.87;;;11.57;;
61704;SDS011;47627;48.078;11.522;2023-05-24T09:23:43;12.35;;;9.88;;
61704;SDS011;47627;48.078;11.522;2023-05-24T09:26:09;11.13;;;9.93;;
61704;SDS011;47627;48.078;11.522;2023-05-24T09:28:35;12.85;;;9.98;;
61704;SDS011;47627;48.078;11.522;2023-05-24T09:31:01;10.27;;;9.18;;
61704;SDS011;47627;48.078;11.522;2023-05-24T09:33:30;13.32;;;10.38;;
61704;SDS011;47627;48.078;11.522;2023-05-24T09:35:59;12.82;;;9.60;;
61704;SDS011;47627;48.078;11.522;2023-05-24T09:38:25;10.30;;;8.88;;
61704;SDS011;47627;48.078;11.522;2023-05-24T09:43:48;14.75;;;10.50;;
61704;SDS011;47627;48.078;11.522;2023-05-24T09:46:16;11.55;;;10.35;;
61704;SDS011;47627;48.078;11.522;2023-05-24T09:48:55;12.52;;;10.68;;
61704;SDS011;47627;48.078;11.522;2023-05-24T09:51:21;11.25;;;10.00;;
61704;SDS011;47627;48.078;11.522;2023-05-24T09:53:47;13.32;;;10.63;;
61704;SDS011;47627;48.078;11.522;2023-05-24T09:56:13;13.32;;;11.20;;
61704;SDS011;47627;48.078;11.522;2023-05-24T09:58:38;11.65;;;10.45;;
61704;SDS011;47627;48.078;11.522;2023-05-24T10:01:04;12.73;;;10.30;;
61704;SDS011;47627;48.078;11.522;2023-05-24T10:03:31;12.32;;;10.57;;
61704;SDS011;47627;48.078;11.522;2023-05-24T10:05:56;11.98;;;10.43;;
61704;SDS011;47627;48.078;11.522;2023-05-24T10:08:22;11.95;;;10.65;;
61704;SDS011;47627;48.078;11.522;2023-05-24T10:10:47;12.93;;;9.70;;
61704;SDS011;47627;48.078;11.522;2023-05-24T10:13:13;10.48;;;9.38;;
61704;SDS011;47627;48.078;11.522;2023-05-24T10:15:40;11.25;;;9.38;;
61704;SDS011;47627;48.078;11.522;2023-05-24T10:18:06;13.57;;;9.88;;
61704;SDS011;47627;48.078;11.522;2023-05-24T10:20:32;12.77;;;9.57;;
61704;SDS011;47627;48.078;11.522;2023-05-24T10:22:58;12.52;;;10.15;;
61704;SDS011;47627;48.078;11.522;2023-05-24T10:25:26;15.95;;;10.75;;
61704;SDS011;47627;48.078;11.522;2023-05-24T10:28:13;13.05;;;10.32;;
61704;SDS011;47627;48.078;11.522;2023-05-24T10:36:03;15.23;;;10.57;;
61704;SDS011;47627;48.078;11.522;2023-05-24T10:38:29;18.50;;;10.98;;
61704;SDS011;47627;48.078;11.522;2023-05-24T10:40:55;14.82;;;11.23;;
61704;SDS011;47627;48.078;11.522;2023-05-24T10:43:20;16.80;;;11.65;;
61704;SDS011;47627;48.078;11.522;2023-05-24T10:45:49;18.65;;;11.45;;
61704;SDS011;47627;48.078;11.522;2023-05-24T10:50:40;16.37;;;10.97;;
61704;SDS011;47627;48.078;11.522;2023-05-24T10:55:51;14.10;;;11.02;;
61704;SDS011;47627;48.078;11.522;2023-05-24T10:58:17;17.05;;;10.65;;
61704;SDS011;47627;48.078;11.522;2023-05-24T11:00:42;13.75;;;10.25;;
61704;SDS011;47627;48.078;11.522;2023-05-24T11:11:13;15.27;;;9.30;;
61704;SDS011;47627;48.078;11.522;2023-05-24T11:13:44;15.02;;;9.75;;
61704;SDS011;47627;48.078;11.522;2023-05-24T11:16:14;15.55;;;10.13;;
61704;SDS011;47627;48.078;11.522;2023-05-24T11:18:55;18.23;;;10.63;;
61704;SDS011;47627;48.078;11.522;2023-05-24T11:21:20;14.88;;;9.73;;
61704;SDS011;47627;48.078;11.522;2023-05-24T11:23:46;14.80;;;9.70;;
61704;SDS011;47627;48.078;11.522;2023-05-24T11:26:12;13.48;;;9.63;;
61704;SDS011;47627;48.078;11.522;2023-05-24T11:28:39;13.32;;;9.10;;
61704;SDS011;47627;48.078;11.522;2023-05-24T11:31:08;14.77;;;9.68;;
61704;SDS011;47627;48.078;11.522;2023-05-24T11:33:33;14.02;;;9.05;;
61704;SDS011;47627;48.078;11.522;2023-05-24T11:35:59;15.25;;;9.02;;
61704;SDS011;47627;48.078;11.522;2023-05-24T11:38:24;12.88;;;9.02;;
61704;SDS011;47627;48.078;11.522;2023-05-24T11:40:50;12.75;;;9.10;;
61704;SDS011;47627;48.078;11.522;2023-05-24T11:43:18;15.68;;;9.43;;
61704;SDS011;47627;48.078;11.522;2023-05-24T11:45:45;13.85;;;8.43;;
61704;SDS011;47627;48.078;11.522;2023-05-24T11:48:10;14.85;;;8.32;;
61704;SDS011;47627;48.078;11.522;2023-05-24T11:50:39;13.20;;;7.82;;
61704;SDS011;47627;48.078;11.522;2023-05-24T11:53:05;12.43;;;7.70;;
61704;SDS011;47627;48.078;11.522;2023-05-24T11:55:30;11.48;;;6.95;;
61704;SDS011;47627;48.078;11.522;2023-05-24T11:57:57;12.85;;;7.88;;
61704;SDS011;47627;48.078;11.522;2023-05-24T12:00:23;13.13;;;6.82;;
61704;SDS011;47627;48.078;11.522;2023-05-24T12:02:48;16.95;;;7.82;;
61704;SDS011;47627;48.078;11.522;2023-05-24T12:05:13;14.23;;;7.68;;
61704;SDS011;47627;48.078;11.522;2023-05-24T12:07:42;14.75;;;8.20;;
61704;SDS011;47627;48.078;11.522;2023-05-24T12:10:12;14.35;;;7.75;;
61704;SDS011;47627;48.078;11.522;2023-05-24T12:12:41;16.33;;;8.02;;
61704;SDS011;47627;48.078;11.522;2023-05-24T12:15:07;13.35;;;7.40;;
61704;SDS011;47627;48.078;11.522;2023-05-24T12:17:32;14.13;;;7.30;;
61704;SDS011;47627;48.078;11.522;2023-05-24T12:19:57;14.00;;;7.10;;
61704;SDS011;47627;48.078;11.522;2023-05-24T12:22:25;14.10;;;8.00;;
61704;SDS011;47627;48.078;11.522;2023-05-24T12:24:51;15.45;;;8.38;;
61704;SDS011;47627;48.078;11.522;2023-05-24T12:27:16;10.85;;;7.68;;
61704;SDS011;47627;48.078;11.522;2023-05-24T12:29:42;11.27;;;7.65;;
61704;SDS011;47627;48.078;11.522;2023-05-24T12:32:08;12.57;;;7.28;;
61704;SDS011;47627;48.078;11.522;2023-05-24T12:34:36;11.95;;;7.40;;
61704;SDS011;47627;48.078;11.522;2023-05-24T12:37:02;12.05;;;7.30;;
61704;SDS011;47627;48.078;11.522;2023-05-24T12:39:28;16.85;;;7.20;;
61704;SDS011;47627;48.078;11.522;2023-05-24T12:41:58;10.50;;;7.13;;
61704;SDS011;47627;48.078;11.522;2023-05-24T12:44:27;13.90;;;7.22;;
61704;SDS011;47627;48.078;11.522;2023-05-24T12:46:53;13.25;;;7.03;;
61704;SDS011;47627;48.078;11.522;2023-05-24T12:49:18;12.57;;;6.53;;
61704;SDS011;47627;48.078;11.522;2023-05-24T12:51:44;10.25;;;6.63;;
61704;SDS011;47627;48.078;11.522;2023-05-24T12:54:09;10.30;;;6.18;;
61704;SDS011;47627;48.078;11.522;2023-05-24T12:56:34;13.80;;;6.68;;
61704;SDS011;47627;48.078;11.522;2023-05-24T12:58:59;13.05;;;6.25;;
61704;SDS011;47627;48.078;11.522;2023-05-24T13:01:25;14.07;;;6.60;;
61704;SDS011;47627;48.078;11.522;2023-05-24T13:03:50;11.50;;;6.38;;
61704;SDS011;47627;48.078;11.522;2023-05-24T13:06:16;15.20;;;6.68;;
61704;SDS011;47627;48.078;11.522;2023-05-24T13:08:41;10.25;;;5.65;;
61704;SDS011;47627;48.078;11.522;2023-05-24T13:11:06;13.02;;;5.80;;
61704;SDS011;47627;48.078;11.522;2023-05-24T13:13:32;10.65;;;6.18;;
61704;SDS011;47627;48.078;11.522;2023-05-24T13:15:57;14.75;;;6.07;;
61704;SDS011;47627;48.078;11.522;2023-05-24T13:18:22;16.60;;;7.20;;
61704;SDS011;47627;48.078;11.522;2023-05-24T13:20:48;14.35;;;6.38;;
61704;SDS011;47627;48.078;11.522;2023-05-24T13:23:14;10.27;;;5.82;;
61704;SDS011;47627;48.078;11.522;2023-05-24T13:25:39;13.03;;;6.47;;
61704;SDS011;47627;48.078;11.522;2023-05-24T13:28:05;13.18;;;6.47;;
61704;SDS011;47627;48.078;11.522;2023-05-24T13:30:31;11.10;;;6.15;;
61704;SDS011;47627;48.078;11.522;2023-05-24T13:32:56;15.60;;;6.57;;
61704;SDS011;47627;48.078;11.522;2023-05-24T13:35:23;12.50;;;6.28;;
61704;SDS011;47627;48.078;11.522;2023-05-24T13:37:48;14.85;;;6.20;;
61704;SDS011;47627;48.078;11.522;2023-05-24T13:40:13;14.18;;;7.05;;
61704;SDS011;47627;48.078;11.522;2023-05-24T13:42:38;12.95;;;5.90;;
61704;SDS011;47627;48.078;11.522;2023-05-24T13:45:04;13.20;;;6.20;;
61704;SDS011;47627;48.078;11.522;2023-05-24T13:47:29;13.88;;;6.55;;
61704;SDS011;47627;48.078;11.522;2023-05-24T13:49:55;12.82;;;6.65;;
61704;SDS011;47627;48.078;11.522;2023-05-24T13:52:21;12.07;;;6.40;;
61704;SDS011;47627;48.078;11.522;2023-05-24T13:54:46;12.75;;;5.75;;
61704;SDS011;47627;48.078;11.522;2023-05-24T13:57:12;11.85;;;6.07;;
61704;SDS011;47627;48.078;11.522;2023-05-24T13:59:37;11.88;;;5.40;;
61704;SDS011;47627;48.078;11.522;2023-05-24T14:02:03;10.20;;;5.78;;
61704;SDS011;47627;48.078;11.522;2023-05-24T14:04:28;12.50;;;6.45;;
61704;SDS011;47627;48.078;11.522;2023-05-24T14:06:54;12.38;;;6.22;;
61704;SDS011;47627;48.078;11.522;2023-05-24T14:09:19;12.40;;;6.50;;
61704;SDS011;47627;48.078;11.522;2023-05-24T14:11:45;13.68;;;6.38;;
61704;SDS011;47627;48.078;11.522;2023-05-24T14:14:10;11.82;;;6.20;;
61704;SDS011;47627;48.078;11.522;2023-05-24T14:16:35;9.63;;;5.63;;
61704;SDS011;47627;48.078;11.522;2023-05-24T14:19:00;16.08;;;5.70;;
61704;SDS011;47627;48.078;11.522;2023-05-24T14:21:26;12.23;;;6.53;;
61704;SDS011;47627;48.078;11.522;2023-05-24T14:23:51;11.15;;;6.43;;
61704;SDS011;47627;48.078;11.522;2023-05-24T14:26:16;13.45;;;5.93;;
61704;SDS011;47627;48.078;11.522;2023-05-24T14:28:42;14.77;;;5.95;;
61704;SDS011;47627;48.078;11.522;2023-05-24T14:31:07;13.80;;;6.10;;
61704;SDS011;47627;48.078;11.522;2023-05-24T14:33:32;10.90;;;6.15;;
61704;SDS011;47627;48.078;11.522;2023-05-24T14:35:57;12.90;;;5.93;;
61704;SDS011;47627;48.078;11.522;2023-05-24T14:38:23;13.40;;;6.15;;
61704;SDS011;47627;48.078;11.522;2023-05-24T14:40:49;15.93;;;6.57;;
61704;SDS011;47627;48.078;11.522;2023-05-24T14:43:15;15.20;;;6.53;;
61704;SDS011;47627;48.078;11.522;2023-05-24T14:45:40;13.77;;;5.63;;
61704;SDS011;47627;48.078;11.522;2023-05-24T14:48:06;12.77;;;6.00;;
61704;SDS011;47627;48.078;11.522;2023-05-24T14:50:31;16.20;;;7.25;;
61704;SDS011;47627;48.078;11.522;2023-05-24T14:52:56;14.23;;;5.63;;
61704;SDS011;47627;48.078;11.522;2023-05-24T14:55:21;14.80;;;6.40;;
61704;SDS011;47627;48.078;11.522;2023-05-24T14:57:46;12.38;;;6.05;;
61704;SDS011;47627;48.078;11.522;2023-05-24T15:00:13;11.85;;;6.00;;
61704;SDS011;47627;48.078;11.522;2023-05-24T15:02:38;14.40;;;6.43;;
61704;SDS011;47627;48.078;11.522;2023-05-24T15:05:04;12.43;;;5.70;;
61704;SDS011;47627;48.078;11.522;2023-05-24T15:07:30;10.88;;;5.43;;
61704;SDS011;47627;48.078;11.522;2023-05-24T15:09:55;16.27;;;6.18;;
61704;SDS011;47627;48.078;11.522;2023-05-24T15:12:21;10.40;;;5.40;;
61704;SDS011;47627;48.078;11.522;2023-05-24T15:14:46;9.63;;;5.32;;
61704;SDS011;47627;48.078;11.522;2023-05-24T15:17:11;10.63;;;5.40;;
61704;SDS011;47627;48.078;11.522;2023-05-24T15:19:37;11.68;;;6.05;;
61704;SDS011;47627;48.078;11.522;2023-05-24T15:22:02;12.88;;;5.50;;
61704;SDS011;47627;48.078;11.522;2023-05-24T15:24:27;9.90;;;5.82;;
61704;SDS011;47627;48.078;11.522;2023-05-24T15:26:52;11.52;;;6.38;;
61704;SDS011;47627;48.078;11.522;2023-05-24T15:29:18;11.20;;;6.45;;
61704;SDS011;47627;48.078;11.522;2023-05-24T15:31:44;13.32;;;6.80;;
61704;SDS011;47627;48.078;11.522;2023-05-24T15:34:09;14.02;;;6.30;;
61704;SDS011;47627;48.078;11.522;2023-05-24T15:36:34;13.85;;;6.43;;
61704;SDS011;47627;48.078;11.522;2023-05-24T15:39:00;11.15;;;6.38;;
61704;SDS011;47627;48.078;11.522;2023-05-24T15:41:25;12.48;;;6.72;;
61704;SDS011;47627;48.078;11.522;2023-05-24T15:43:52;16.73;;;6.60;;
61704;SDS011;47627;48.078;11.522;2023-05-24T15:46:19;10.65;;;5.28;;
61704;SDS011;47627;48.078;11.522;2023-05-24T15:48:44;10.15;;;5.20;;
61704;SDS011;47627;48.078;11.522;2023-05-24T15:51:09;7.95;;;5.47;;
61704;SDS011;47627;48.078;11.522;2023-05-24T15:53:35;15.75;;;6.20;;
61704;SDS011;47627;48.078;11.522;2023-05-24T15:56:00;9.38;;;5.25;;
61704;SDS011;47627;48.078;11.522;2023-05-24T15:58:25;9.20;;;5.10;;
61704;SDS011;47627;48.078;11.522;2023-05-24T16:00:50;9.83;;;5.00;;
61704;SDS011;47627;48.078;11.522;2023-05-24T16:03:17;8.50;;;4.63;;
61704;SDS011;47627;48.078;11.522;2023-05-24T16:05:43;12.23;;;5.60;;
61704;SDS011;47627;48.078;11.522;2023-05-24T16:08:09;11.63;;;5.53;;
61704;SDS011;47627;48.078;11.522;2023-05-24T16:10:34;11.18;;;5.75;;
61704;SDS011;47627;48.078;11.522;2023-05-24T16:34:56;12.40;;;5.43;;
61704;SDS011;47627;48.078;11.522;2023-05-24T16:37:21;8.73;;;5.13;;
61704;SDS011;47627;48.078;11.522;2023-05-24T16:39:47;12.57;;;4.82;;
61704;SDS011;47627;48.078;11.522;2023-05-24T16:42:12;9.93;;;5.32;;
61704;SDS011;47627;48.078;11.522;2023-05-24T16:44:37;10.50;;;5.00;;
61704;SDS011;47627;48.078;11.522;2023-05-24T16:47:02;9.43;;;5.05;;
61704;SDS011;47627;48.078;11.522;2023-05-24T16:49:28;11.73;;;5.70;;
61704;SDS011;47627;48.078;11.522;2023-05-24T16:57:16;10.05;;;5.35;;
61704;SDS011;47627;48.078;11.522;2023-05-24T16:59:41;10.55;;;5.30;;
61704;SDS011;47627;48.078;11.522;2023-05-24T17:23:23;9.38;;;5.55;;
61704;SDS011;47627;48.078;11.522;2023-05-24T17:25:49;11.95;;;5.95;;
61704;SDS011;47627;48.078;11.522;2023-05-24T17:28:14;10.40;;;5.18;;
61704;SDS011;47627;48.078;11.522;2023-05-24T17:30:39;10.95;;;5.68;;
61704;SDS011;47627;48.078;11.522;2023-05-24T17:33:04;8.57;;;4.97;;
61704;SDS011;47627;48.078;11.522;2023-05-24T17:35:30;11.68;;;6.00;;
61704;SDS011;47627;48.078;11.522;2023-05-24T17:37:55;11.60;;;5.30;;
61704;SDS011;47627;48.078;11.522;2023-05-24T17:40:20;12.48;;;5.80;;
61704;SDS011;47627;48.078;11.522;2023-05-24T17:45:27;11.63;;;5.60;;
61704;SDS011;47627;48.078;11.522;2023-05-24T17:47:52;10.13;;;5.88;;
61704;SDS011;47627;48.078;11.522;2023-05-24T17:50:17;8.73;;;5.23;;
61704;SDS011;47627;48.078;11.522;2023-05-24T17:52:43;10.87;;;5.90;;
61704;SDS011;47627;48.078;11.522;2023-05-24T17:55:08;12.88;;;5.53;;
61704;SDS011;47627;48.078;11.522;2023-05-24T17:57:33;12.38;;;5.45;;
61704;SDS011;47627;48.078;11.522;2023-05-24T17:59:58;10.20;;;5.63;;
61704;SDS011;47627;48.078;11.522;2023-05-24T18:02:24;7.68;;;5.03;;
61704;SDS011;47627;48.078;11.522;2023-05-24T18:04:49;9.90;;;5.68;;
61704;SDS011;47627;48.078;11.522;2023-05-24T18:07:16;11.50;;;5.80;;
61704;SDS011;47627;48.078;11.522;2023-05-24T18:09:42;8.38;;;5.53;;
